KDPA/DPA METAR and TAF weather

Enter ICAO airport designator
Station Type Date Time Source
KDPA METAR 2023/02/05 23:52 UTC NOAA

KDPA 052352Z 28006KT 10SM CLR 01/M04 A3004 RMK AO2 SLP178 T00061039 10033 20006 51035


Station Type Date Time Source
KDPA Decoded METAR 2023/02/05 23:52 UTC NOAA

CHICAGO/WEST CH DUPAGE, IL, United States (KDPA) 41-54N 88-15W 230M
Feb 05, 2023 - 06:52 PM EST / 2023.02.05 2352 UTC
Wind: from the W (280 degrees) at 7 MPH (6 KT):0
Visibility: 10 mile(s):0
Sky conditions: clear
Temperature: 33.1 F (0.6 C)
Windchill: 26 F (-3 C):1
Dew Point: 25.0 F (-3.9 C)
Relative Humidity: 71%
Pressure (altimeter): 30.04 in. Hg (1017 hPa)
Pressure tendency: 0.10 inches (3.5 hPa) higher than three hours ago
ob: KDPA 052352Z 28006KT 10SM CLR 01/M04 A3004 RMK AO2 SLP178 T00061039 10033 20006 51035
cycle: 0

Station Type Date Time Source
KDPA TAF 2023/02/05 21:52 UTC NOAA

TAF
AMD KDPA 052050Z 0521/0618 30011G17KT P6SM FEW050
FM060200 33006KT P6SM SCT025
FM060900 00000KT 6SM BR SCT010
FM061500 15010KT P6SM SCT015 SCT250

Example: see airport list